CYBW/YBW METAR and TAF weather

Enter ICAO airport designator
Station Type Date Time Source
CYBW METAR 2018/07/21 11:00 UTC NOAA

CYBW 211100Z AUTO 19007KT 9SM SCT029 06/06 A3002 RMK SLP167


Station Type Date Time Source
CYBW Decoded METAR 2018/07/21 11:00 UTC NOAA

Calgary / Springbank, Canada (CYBW) 51-06N 114-22W
Jul 21, 2018 - 07:00 AM EDT / 2018.07.21 1100 UTC
Wind: from the S (190 degrees) at 8 MPH (7 KT):0
Visibility: 9 mile(s):0
Sky conditions: partly cloudy
Temperature: 42 F (6 C)
Dew Point: 42 F (6 C)
Relative Humidity: 100%
Pressure (altimeter): 30.02 in. Hg (1016 hPa)
ob: CYBW 211100Z AUTO 19007KT 9SM SCT029 06/06 A3002 RMK SLP167
cycle: 11

Station Type Date Time Source
CYBW TAF 2018/07/20 23:12 UTC NOAA

TAF
AMD TAF
AMD CYBW 202310Z 2023/2104 01015G25KT P6SM FEW080 SCT120
BECMG 2101/2103 34006KT
RMK FCST BASED ON AUTO OBS. NXT FCST BY 210000Z


Example: see airport list